Time;durP1;ratioP1;P1;durP2;ratioP2;P2;SDS_P1;SDS_P2;PMS_P1;PMS_P2;Temp;Humidity;BMP_temperature;BMP_pressure;BME280_temperature;BME280_humidity;BME280_pressure;Samples;Min_cycle;Max_cycle;Signal;HPM_P1;HPM_P2
2023/12/07 00:01:26;;;;;;;34.58;16.38;;;;;;;-6.94;60.99;101689.16;5052522;28;20367;-59
2023/12/07 00:03:52;;;;;;;31.85;16.20;;;;;;;-7.00;60.91;101702.91;5051979;28;20040;-59
2023/12/07 00:06:17;;;;;;;34.15;15.48;;;;;;;-7.02;61.35;101706.31;5052193;28;20064;-57
2023/12/07 00:08:43;;;;;;;33.40;15.30;;;;;;;-7.05;61.19;101712.34;5038603;28;20040;-58
2023/12/07 00:11:08;;;;;;;31.50;14.88;;;;;;;-7.01;61.04;101708.06;5048274;28;20041;-56
2023/12/07 00:13:34;;;;;;;33.75;15.82;;;;;;;-7.02;61.09;101709.81;5052300;28;20032;-58
2023/12/07 00:15:59;;;;;;;30.88;14.80;;;;;;;-7.03;61.06;101704.53;5051770;28;20444;-53
2023/12/07 00:18:25;;;;;;;26.88;13.95;;;;;;;-7.03;61.21;101714.97;5050838;28;20029;-57
2023/12/07 00:20:50;;;;;;;26.73;13.63;;;;;;;-7.00;61.01;101704.59;5050802;28;20041;-59
2023/12/07 00:23:16;;;;;;;30.70;13.57;;;;;;;-6.97;61.06;101710.78;5052339;28;20090;-59
2023/12/07 00:25:41;;;;;;;30.83;14.30;;;;;;;-7.02;61.01;101704.59;5051892;28;20402;-58
2023/12/07 00:28:07;;;;;;;30.00;14.65;;;;;;;-7.12;61.32;101708.72;5050436;28;20056;-59
2023/12/07 00:30:33;;;;;;;31.80;13.68;;;;;;;-7.06;61.36;101718.41;5052434;28;20041;-60
2023/12/07 00:33:00;;;;;;;29.15;12.07;;;;;;;-7.11;60.90;101707.88;5052173;28;20045;-59
2023/12/07 00:35:28;;;;;;;28.98;14.38;;;;;;;-7.22;60.93;101712.81;5051763;28;20171;-58
2023/12/07 00:37:56;;;;;;;30.98;13.75;;;;;;;-7.32;61.46;101710.88;5049991;28;20029;-55
2023/12/07 00:40:22;;;;;;;31.25;14.23;;;;;;;-7.32;61.30;101716.06;5052857;28;20061;-56
2023/12/07 00:42:47;;;;;;;29.75;14.07;;;;;;;-7.35;61.21;101711.66;5051866;28;20106;-57
2023/12/07 00:45:13;;;;;;;27.75;13.55;;;;;;;-7.25;60.64;101706.66;5051316;28;20091;-52
2023/12/07 00:47:39;;;;;;;26.02;13.70;;;;;;;-7.39;61.53;101721.94;5048788;28;20021;-53
2023/12/07 00:50:06;;;;;;;29.85;13.52;;;;;;;-7.33;60.59;101723.81;5035159;28;20451;-58
2023/12/07 00:52:32;;;;;;;26.58;13.68;;;;;;;-7.51;61.62;101718.22;5049447;28;20036;-59
2023/12/07 00:54:57;;;;;;;29.70;13.25;;;;;;;-7.52;61.25;101712.97;5051246;28;20028;-56
2023/12/07 00:57:23;;;;;;;29.20;13.18;;;;;;;-7.56;61.49;101713.75;5049786;28;20038;-55
2023/12/07 00:59:49;;;;;;;29.48;13.32;;;;;;;-7.53;61.62;101719.00;5051720;28;20413;-56
2023/12/07 01:02:14;;;;;;;30.05;12.90;;;;;;;-7.57;61.87;101719.78;5051112;28;20036;-58
2023/12/07 01:04:40;;;;;;;29.48;13.52;;;;;;;-7.64;61.35;101713.53;5051642;28;20060;-57
2023/12/07 01:07:05;;;;;;;28.63;13.75;;;;;;;-7.62;61.98;101721.41;5048456;28;20029;-57
2023/12/07 01:09:31;;;;;;;32.03;14.70;;;;;;;-7.50;61.28;101727.78;5031222;28;20409;-56
2023/12/07 01:11:58;;;;;;;30.08;13.25;;;;;;;-7.57;61.09;101712.88;5031615;28;20033;-55
2023/12/07 01:14:24;;;;;;;31.58;12.52;;;;;;;-7.65;61.49;101715.28;5031367;28;20026;-56
2023/12/07 01:16:49;;;;;;;27.83;13.73;;;;;;;-7.62;61.35;101727.47;5032774;28;20044;-57
2023/12/07 01:19:15;;;;;;;32.63;13.85;;;;;;;-7.68;61.32;101733.41;5031786;28;20095;-57
2023/12/07 01:21:41;;;;;;;29.40;13.23;;;;;;;-7.73;62.19;101735.00;5031747;28;20031;-54
2023/12/07 01:24:08;;;;;;;28.63;14.02;;;;;;;-7.69;61.94;101725.56;5031441;28;20115;-59
2023/12/07 01:26:33;;;;;;;29.50;13.48;;;;;;;-7.72;62.27;101738.50;5031486;28;20345;-55
2023/12/07 01:28:59;;;;;;;26.92;13.07;;;;;;;-7.67;61.87;101735.19;5032943;28;20096;-57
2023/12/07 01:31:25;;;;;;;28.02;12.95;;;;;;;-7.64;62.01;101744.75;5031662;28;20033;-59
2023/12/07 01:33:50;;;;;;;31.25;14.25;;;;;;;-7.64;61.94;101745.66;5033570;28;20099;-55
2023/12/07 01:36:16;;;;;;;29.15;13.85;;;;;;;-7.53;61.28;101747.63;5035325;28;20041;-58
2023/12/07 01:38:43;;;;;;;25.58;13.55;;;;;;;-7.66;61.23;101741.25;5048490;28;20027;-55
2023/12/07 01:41:09;;;;;;;27.92;13.35;;;;;;;-7.66;61.28;101752.53;5054739;28;20037;-52
2023/12/07 01:43:34;;;;;;;28.38;12.27;;;;;;;-7.76;62.00;101752.25;5043215;28;20032;-55
2023/12/07 01:46:00;;;;;;;35.58;13.93;;;;;;;-7.45;60.72;101755.63;5035361;28;20341;-59
2023/12/07 01:48:27;;;;;;;31.48;14.32;;;;;;;-7.61;61.40;101762.19;5046003;28;20086;-58
2023/12/07 01:50:55;;;;;;;30.17;14.25;;;;;;;-7.56;61.20;101765.78;5054612;28;20123;-58
2023/12/07 01:53:23;;;;;;;27.75;13.63;;;;;;;-7.62;61.19;101763.03;5054708;28;20033;-56
2023/12/07 01:55:49;;;;;;;31.95;14.57;;;;;;;-7.60;61.13;101771.75;5053230;28;20025;-57
2023/12/07 01:58:17;;;;;;;28.23;13.98;;;;;;;-7.86;61.54;101727.75;5045066;28;20360;-55
2023/12/07 02:00:44;;;;;;;29.23;13.90;;;;;;;-7.66;61.51;101773.34;5036440;28;20029;-58
2023/12/07 02:03:10;;;;;;;31.70;14.30;;;;;;;-7.65;61.23;101775.13;5051774;28;20374;-54
2023/12/07 02:05:37;;;;;;;36.08;16.02;;;;;;;-7.75;61.04;101756.63;5054901;28;20513;-57
2023/12/07 02:08:04;;;;;;;31.48;14.02;;;;;;;-7.83;60.93;101730.41;5052854;28;20094;-56
2023/12/07 02:10:30;;;;;;;31.13;15.43;;;;;;;-7.79;61.51;101766.94;5054332;28;20107;-57
2023/12/07 02:12:55;;;;;;;30.90;13.77;;;;;;;-7.53;60.86;101768.44;5054562;28;20036;-55
2023/12/07 02:15:22;;;;;;;34.67;16.30;;;;;;;-7.83;61.57;101769.41;5053615;28;20367;-56
2023/12/07 02:18:22;;;;;;;32.90;15.07;;;;;;;-7.83;61.93;101774.63;5050703;28;20029;-58
2023/12/07 02:21:12;;;;;;;30.15;14.30;;;;;;;-7.82;61.65;101781.56;5034086;28;20037;-55
2023/12/07 02:23:41;;;;;;;29.30;13.77;;;;;;;-7.75;61.82;101790.44;5042166;28;20053;-59
2023/12/07 02:26:08;;;;;;;27.85;11.40;;;;;;;-7.66;60.68;101777.66;5054464;28;20045;-55
2023/12/07 02:28:34;;;;;;;30.17;14.80;;;;;;;-7.84;61.00;101783.25;5044241;28;20037;-57
2023/12/07 02:30:59;;;;;;;29.98;14.70;;;;;;;-7.89;61.28;101795.25;5033848;28;20033;-58
2023/12/07 02:33:25;;;;;;;27.92;14.93;;;;;;;-7.96;61.91;101787.31;5034533;28;20397;-56
2023/12/07 02:35:51;;;;;;;31.02;15.20;;;;;;;-7.89;61.93;101796.13;5034229;28;20045;-56
2023/12/07 02:38:18;;;;;;;29.27;15.00;;;;;;;-7.78;61.40;101797.31;5034907;28;20491;-59
2023/12/07 02:40:46;;;;;;;30.58;14.27;;;;;;;-7.80;61.41;101788.59;5033780;28;20033;-57
2023/12/07 02:43:12;;;;;;;28.80;14.85;;;;;;;-7.78;61.07;101793.81;5033753;28;20060;-56
2023/12/07 02:45:38;;;;;;;28.55;14.07;;;;;;;-8.00;61.00;101751.63;5032661;28;20033;-56
2023/12/07 02:48:04;;;;;;;31.30;14.07;;;;;;;-7.83;60.60;101766.81;5034670;28;20037;-54
2023/12/07 02:50:30;;;;;;;31.38;14.95;;;;;;;-7.95;61.46;101776.06;5033763;28;20025;-57
2023/12/07 02:52:56;;;;;;;31.95;14.35;;;;;;;-8.16;61.94;101755.53;5033807;28;20025;-54
2023/12/07 02:55:22;;;;;;;28.98;14.07;;;;;;;-7.91;61.28;101776.16;5033702;28;20060;-55
2023/12/07 02:57:47;;;;;;;29.77;14.52;;;;;;;-7.96;61.53;101783.81;5047900;28;20455;-55
2023/12/07 03:00:14;;;;;;;21.08;9.45;;;;;;;-7.82;60.99;101789.38;5053819;28;20028;-54
2023/12/07 03:02:40;;;;;;;27.48;13.45;;;;;;;-7.99;60.84;101789.78;5049912;28;20466;-55
2023/12/07 03:05:06;;;;;;;30.20;14.38;;;;;;;-8.07;61.34;101801.72;5033382;28;20455;-57
2023/12/07 03:07:35;;;;;;;26.08;12.75;;;;;;;-8.14;62.16;101810.19;5037989;28;20059;-57
2023/12/07 03:10:02;;;;;;;27.08;13.27;;;;;;;-8.15;62.15;101809.28;5053305;28;20025;-57
2023/12/07 03:12:31;;;;;;;27.63;12.88;;;;;;;-8.05;61.65;101818.22;5053164;28;20067;-58
2023/12/07 03:14:57;;;;;;;23.27;11.13;;;;;;;-7.96;60.87;101822.81;5053588;28;20063;-57
2023/12/07 03:17:23;;;;;;;25.75;11.90;;;;;;;-8.10;61.36;101823.28;5049142;28;20082;-58
2023/12/07 03:19:49;;;;;;;27.50;12.40;;;;;;;-8.08;61.18;101815.53;5032777;28;20025;-56
2023/12/07 03:22:14;;;;;;;22.75;10.35;;;;;;;-8.36;61.19;101773.19;5033059;28;20029;-56
2023/12/07 03:24:43;;;;;;;24.40;12.45;;;;;;;-8.06;61.06;101837.25;5033348;28;20100;-57
2023/12/07 03:27:09;;;;;;;23.17;11.20;;;;;;;-7.99;60.72;101825.31;5033895;28;20104;-57
2023/12/07 03:29:34;;;;;;;23.73;10.75;;;;;;;-8.08;61.03;101836.34;5040452;28;20029;-57
2023/12/07 03:32:00;;;;;;;24.08;11.30;;;;;;;-8.21;61.35;101841.16;5035498;28;20032;-56
2023/12/07 03:34:26;;;;;;;22.40;10.85;;;;;;;-8.28;61.43;101852.22;5053002;28;20037;-56
2023/12/07 03:36:51;;;;;;;17.80;8.27;;;;;;;-8.11;61.07;101846.66;5050694;28;20033;-55
2023/12/07 03:39:22;;;;;;;26.13;11.75;;;;;;;-8.15;60.99;101839.59;5035471;28;20057;-57
2023/12/07 03:41:49;;;;;;;22.23;10.02;;;;;;;-8.12;60.63;101839.69;5033219;28;20072;-52
2023/12/07 03:44:15;;;;;;;20.75;10.80;;;;;;;-8.13;60.91;101853.53;5032788;28;20064;-56
2023/12/07 03:46:40;;;;;;;22.58;10.75;;;;;;;-8.13;60.96;101853.53;5033869;28;20053;-58
2023/12/07 03:49:06;;;;;;;25.02;11.43;;;;;;;-8.12;60.49;101845.75;5050618;28;20222;-59
2023/12/07 03:51:32;;;;;;;21.42;11.48;;;;;;;-8.38;61.02;101838.06;5044745;28;20352;-58
2023/12/07 03:53:57;;;;;;;26.48;12.32;;;;;;;-8.23;61.25;101861.03;5042989;28;20053;-56
2023/12/07 03:56:28;;;;;;;24.63;12.52;;;;;;;-8.17;60.61;101851.69;5050298;28;20041;-58
2023/12/07 03:58:54;;;;;;;25.15;11.50;;;;;;;-8.19;60.67;101855.97;5059662;28;20184;-55
2023/12/07 04:01:27;;;;;;;22.80;11.68;;;;;;;-8.18;60.73;101853.38;5032807;28;20076;-56
2023/12/07 04:03:54;;;;;;;25.52;12.05;;;;;;;-8.13;60.52;101861.31;5033337;28;20040;-56
2023/12/07 04:06:21;;;;;;;26.88;12.52;;;;;;;-8.24;60.30;101869.66;5032147;28;20029;-57
2023/12/07 04:08:46;;;;;;;26.80;12.18;;;;;;;-8.36;61.06;101862.38;5048468;28;20034;-55
2023/12/07 04:11:13;;;;;;;25.67;12.15;;;;;;;-8.40;60.82;101873.53;5052508;28;20502;-58
2023/12/07 04:13:39;;;;;;;27.52;11.57;;;;;;;-8.45;61.00;101872.50;5043138;28;20026;-53
2023/12/07 04:16:05;;;;;;;22.65;9.73;;;;;;;-8.37;61.10;101873.63;5032485;28;20029;-55
2023/12/07 04:18:31;;;;;;;26.08;11.38;;;;;;;-8.35;61.11;101878.88;5045988;28;20112;-50
2023/12/07 04:20:56;;;;;;;28.35;12.00;;;;;;;-8.31;60.59;101870.34;5052742;28;20120;-57
2023/12/07 04:23:22;;;;;;;28.80;12.70;;;;;;;-8.44;60.56;101857.78;5052214;28;20154;-55
2023/12/07 04:25:47;;;;;;;25.38;12.02;;;;;;;-8.34;60.69;101859.84;5051791;28;20505;-57
2023/12/07 04:28:13;;;;;;;22.15;11.27;;;;;;;-8.42;60.99;101872.59;5040354;28;20048;-56
2023/12/07 04:30:39;;;;;;;26.45;11.27;;;;;;;-8.49;61.22;101864.59;5032595;28;20364;-56
2023/12/07 04:33:04;;;;;;;28.55;12.00;;;;;;;-8.66;61.14;101823.44;5044516;28;20464;-59
2023/12/07 04:35:30;;;;;;;30.25;12.45;;;;;;;-8.32;60.75;101884.16;5051947;28;20047;-55
2023/12/07 04:37:56;;;;;;;31.60;12.68;;;;;;;-8.44;61.37;101869.06;5050233;28;20053;-59
2023/12/07 04:40:22;;;;;;;27.00;12.93;;;;;;;-8.39;61.54;101879.63;5051680;28;20448;-54
2023/12/07 04:42:47;;;;;;;25.35;12.07;;;;;;;-8.30;61.12;101877.28;5052041;28;20032;-58
2023/12/07 04:45:13;;;;;;;29.05;12.10;;;;;;;-8.31;61.29;101864.28;5051747;28;20029;-53
2023/12/07 04:47:38;;;;;;;25.67;12.18;;;;;;;-8.11;61.10;101877.84;5041737;28;20030;-55
2023/12/07 04:50:05;;;;;;;25.10;11.23;;;;;;;-8.08;61.29;101899.63;5052176;28;20040;-55
2023/12/07 04:52:30;;;;;;;26.98;11.25;;;;;;;-8.05;60.40;101895.34;5048128;28;20400;-55
2023/12/07 04:54:56;;;;;;;31.23;13.18;;;;;;;-8.02;60.44;101898.03;5031917;28;20033;-56
2023/12/07 04:57:21;;;;;;;23.25;9.45;;;;;;;-8.02;60.36;101895.44;5038763;28;20367;-56
2023/12/07 04:59:47;;;;;;;26.45;12.90;;;;;;;-8.24;60.80;101894.78;5051620;28;20370;-52
2023/12/07 05:02:16;;;;;;;29.73;13.18;;;;;;;-8.36;61.22;101884.91;5051824;28;20037;-57
2023/12/07 05:04:45;;;;;;;24.33;12.05;;;;;;;-8.37;61.17;101886.59;5051621;28;20326;-55
2023/12/07 05:07:12;;;;;;;24.88;11.10;;;;;;;-8.24;60.93;101903.44;5049499;28;20116;-58
2023/12/07 05:09:38;;;;;;;27.40;12.50;;;;;;;-8.32;61.33;101897.16;5055222;28;20040;-61
2023/12/07 05:12:05;;;;;;;30.20;13.25;;;;;;;-8.30;61.38;101892.88;5055766;28;20069;-57
2023/12/07 05:14:31;;;;;;;25.65;11.95;;;;;;;-8.29;61.36;101901.56;5055357;28;20352;-56
2023/12/07 05:16:56;;;;;;;28.00;12.52;;;;;;;-8.27;61.41;101903.38;5051402;28;20176;-57
2023/12/07 05:19:25;;;;;;;21.45;10.52;;;;;;;-8.12;61.18;101902.06;5035678;28;20021;-54
2023/12/07 05:21:52;;;;;;;25.98;11.80;;;;;;;-8.19;61.26;101913.13;5039443;28;20054;-59
2023/12/07 05:24:18;;;;;;;27.23;12.00;;;;;;;-8.18;60.95;101910.56;5054698;28;20466;-56
2023/12/07 05:26:47;;;;;;;28.45;13.23;;;;;;;-8.26;61.45;101905.13;5053449;28;20025;-57
2023/12/07 05:29:13;;;;;;;27.67;11.95;;;;;;;-8.20;61.10;101914.84;5055161;28;20051;-55
2023/12/07 05:31:39;;;;;;;25.73;11.32;;;;;;;-8.56;60.65;101863.53;5054989;28;20041;-60
2023/12/07 05:34:05;;;;;;;31.08;13.32;;;;;;;-8.43;60.37;101908.94;5054986;28;20049;-59
2023/12/07 05:36:31;;;;;;;29.13;13.13;;;;;;;-8.44;60.44;101926.22;5052751;28;20116;-57
2023/12/07 05:38:57;;;;;;;29.23;12.10;;;;;;;-8.65;61.13;101926.47;5036897;28;20044;-58
2023/12/07 05:41:23;;;;;;;27.50;12.68;;;;;;;-8.74;61.15;101920.97;5035874;28;20030;-57
2023/12/07 05:43:49;;;;;;;27.75;12.55;;;;;;;-8.64;60.95;101928.22;5051208;28;20112;-57
2023/12/07 05:46:15;;;;;;;27.85;12.05;;;;;;;-8.71;61.35;101931.44;5054169;28;20439;-57
2023/12/07 05:48:41;;;;;;;23.60;11.23;;;;;;;-8.88;61.68;101934.38;5038645;28;20075;-55
2023/12/07 05:51:14;;;;;;;26.23;12.18;;;;;;;-8.80;61.49;101938.09;5034813;28;20037;-58
2023/12/07 05:53:40;;;;;;;25.83;12.13;;;;;;;-9.06;61.45;101887.03;5034735;28;20029;-60
2023/12/07 05:56:06;;;;;;;28.25;12.93;;;;;;;-8.77;61.52;101932.16;5036449;28;20348;-58
2023/12/07 05:58:32;;;;;;;31.40;12.25;;;;;;;-8.68;61.08;101934.13;5051055;28;20033;-55
2023/12/07 06:00:59;;;;;;;30.10;12.13;;;;;;;-8.74;61.14;101923.56;5054478;28;20071;-58
2023/12/07 06:03:25;;;;;;;31.83;13.32;;;;;;;-8.66;60.80;101940.28;5046528;28;20108;-60
2023/12/07 06:05:52;;;;;;;29.98;13.60;;;;;;;-8.68;61.19;101937.63;5035441;28;20083;-51
2023/12/07 06:08:17;;;;;;;35.53;13.90;;;;;;;-8.60;60.99;101944.78;5038347;28;20044;-55
2023/12/07 06:10:43;;;;;;;27.33;12.75;;;;;;;-8.58;60.91;101946.59;5034311;28;20034;-56
2023/12/07 06:13:10;;;;;;;30.02;14.13;;;;;;;-8.60;60.54;101950.88;5050469;28;20021;-54
2023/12/07 06:15:36;;;;;;;25.65;11.18;;;;;;;-8.60;60.29;101949.97;5054840;28;20029;-62
2023/12/07 06:18:03;;;;;;;35.47;13.25;;;;;;;-8.46;60.45;101960.78;5040943;28;20029;-48
2023/12/07 06:20:29;;;;;;;32.13;14.20;;;;;;;-8.50;60.50;101965.03;5033645;28;20036;-56
2023/12/07 06:22:54;;;;;;;26.63;11.80;;;;;;;-8.42;60.37;101957.47;5034005;28;20320;-56
2023/12/07 06:25:20;;;;;;;28.92;12.82;;;;;;;-8.28;60.25;101963.97;5034707;28;20448;-57
2023/12/07 06:27:46;;;;;;;25.50;12.80;;;;;;;-8.17;60.25;101974.72;5049405;28;20044;-57
2023/12/07 06:30:12;;;;;;;23.83;10.98;;;;;;;-7.97;59.54;101964.91;5053064;28;20477;-52
2023/12/07 06:32:38;;;;;;;27.58;12.07;;;;;;;-8.10;58.67;101919.47;5053949;28;20061;-55
2023/12/07 06:35:06;;;;;;;32.55;12.40;;;;;;;-7.80;58.86;101968.03;5053793;28;20373;-55
2023/12/07 06:37:32;;;;;;;27.90;12.20;;;;;;;-7.79;58.42;101969.81;5040601;28;20483;-53
2023/12/07 06:39:58;;;;;;;32.40;14.00;;;;;;;-7.62;57.95;101968.53;5033779;28;20116;-50
2023/12/07 06:42:24;;;;;;;31.23;13.63;;;;;;;-7.29;58.13;101959.91;5042913;28;20036;-50
2023/12/07 06:44:50;;;;;;;34.38;14.50;;;;;;;-6.88;57.89;101957.53;5053907;28;20090;-51
2023/12/07 06:47:15;;;;;;;28.63;13.57;;;;;;;-6.13;56.62;101954.09;5043932;28;20514;-52
2023/12/07 06:49:41;;;;;;;27.67;12.32;;;;;;;-5.58;55.26;101940.44;5033966;28;20040;-52
2023/12/07 06:52:07;;;;;;;31.10;14.23;;;;;;;-5.40;54.63;101946.03;5033748;28;20104;-53
2023/12/07 06:54:33;;;;;;;31.67;13.93;;;;;;;-5.27;53.77;101959.34;5033576;28;20073;-50
2023/12/07 06:56:59;;;;;;;31.98;14.20;;;;;;;-5.37;54.23;101953.94;5041611;28;20074;-51
2023/12/07 06:59:25;;;;;;;29.25;13.98;;;;;;;-5.21;53.54;101951.63;5053436;28;20040;-54
2023/12/07 07:01:50;;;;;;;23.77;11.25;;;;;;;-4.94;53.26;101958.22;5053308;28;20345;-52
2023/12/07 07:04:16;;;;;;;32.55;14.32;;;;;;;-4.98;52.62;101945.94;5052878;28;20029;-55
2023/12/07 07:06:42;;;;;;;32.90;15.10;;;;;;;-5.10;52.18;101955.31;5045976;28;20030;-56
2023/12/07 07:09:07;;;;;;;28.70;13.68;;;;;;;-5.73;52.91;101883.59;5037869;28;20353;-55
2023/12/07 07:11:34;;;;;;;31.33;14.93;;;;;;;-5.56;53.29;101952.69;5038057;28;20063;-55
2023/12/07 07:14:00;;;;;;;22.48;8.40;;;;;;;-5.26;52.95;101958.50;5053275;28;20095;-54
2023/12/07 07:16:26;;;;;;;32.08;14.07;;;;;;;-5.38;52.81;101962.63;5053119;28;20053;-54
2023/12/07 07:18:51;;;;;;;32.00;14.73;;;;;;;-5.67;53.34;101954.19;5048167;28;20060;-56
2023/12/07 07:21:19;;;;;;;30.02;14.05;;;;;;;-5.70;53.69;101956.72;5052877;28;20072;-55
2023/12/07 07:23:44;;;;;;;28.60;13.80;;;;;;;-5.63;53.39;101950.81;5051835;28;20031;-55
2023/12/07 07:26:10;;;;;;;34.05;14.18;;;;;;;-5.60;53.44;101955.19;5048325;28;20032;-54
2023/12/07 07:28:36;;;;;;;34.90;15.73;;;;;;;-5.68;52.94;101958.53;5052484;28;20039;-52
2023/12/07 07:31:02;;;;;;;30.92;14.10;;;;;;;-5.70;52.52;101959.34;5052148;28;20116;-50
2023/12/07 07:33:28;;;;;;;25.23;12.32;;;;;;;-5.74;53.10;101971.47;5053163;28;20111;-54
2023/12/07 07:35:55;;;;;;;27.85;13.13;;;;;;;-5.88;53.38;101965.06;5052034;28;20041;-58
2023/12/07 07:38:20;;;;;;;29.80;13.73;;;;;;;-5.90;53.50;101967.66;5052013;28;20036;-61
2023/12/07 07:40:47;;;;;;;28.88;13.30;;;;;;;-5.91;53.63;101977.19;5048017;28;20032;-56
2023/12/07 07:43:13;;;;;;;25.38;12.55;;;;;;;-5.95;52.72;101964.91;5052910;28;20025;-59
2023/12/07 07:45:38;;;;;;;32.58;13.20;;;;;;;-5.84;52.94;101979.91;5050360;28;20469;-62
2023/12/07 07:48:04;;;;;;;30.77;13.93;;;;;;;-5.71;52.90;101973.22;5052399;28;20029;-58
2023/12/07 07:50:29;;;;;;;27.80;12.98;;;;;;;-5.63;51.91;101984.75;5052858;28;20021;-59
2023/12/07 07:52:55;;;;;;;28.25;12.55;;;;;;;-5.75;52.83;101972.31;5048397;28;20037;-59
2023/12/07 07:55:21;;;;;;;25.92;12.00;;;;;;;-5.88;52.92;101960.72;5042049;28;20068;-64
2023/12/07 07:57:47;;;;;;;23.80;11.68;;;;;;;-5.81;52.73;101972.16;5052287;28;20041;-57
2023/12/07 08:00:13;;;;;;;25.40;12.45;;;;;;;-5.75;52.23;101993.19;5052695;28;20024;-59
2023/12/07 08:02:39;;;;;;;29.83;13.23;;;;;;;-5.76;52.27;101981.00;5052231;28;20051;-58
2023/12/07 08:05:05;;;;;;;28.80;13.35;;;;;;;-5.66;52.13;101988.16;5035609;28;20022;-56
2023/12/07 08:07:30;;;;;;;30.30;14.07;;;;;;;-5.75;52.22;101935.78;5032032;28;20021;-54
2023/12/07 08:09:56;;;;;;;20.95;10.20;;;;;;;-5.41;51.88;101988.66;5042095;28;20040;-56
2023/12/07 08:12:25;;;;;;;24.48;12.80;;;;;;;-5.64;51.45;101981.22;5046116;28;20045;-57
2023/12/07 08:14:50;;;;;;;31.42;13.50;;;;;;;-5.69;51.77;101992.41;5051071;28;20028;-58
2023/12/07 08:17:16;;;;;;;28.00;13.75;;;;;;;-5.64;51.48;101978.63;5052155;28;20347;-57
2023/12/07 08:19:42;;;;;;;30.17;14.70;;;;;;;-5.54;51.35;101992.75;5052752;28;20541;-56
2023/12/07 08:22:08;;;;;;;30.88;14.38;;;;;;;-5.26;51.45;101992.44;5052475;28;20086;-57
2023/12/07 08:24:34;;;;;;;29.50;14.68;;;;;;;-5.12;50.84;101992.72;5051301;28;20021;-55
2023/12/07 08:26:59;;;;;;;26.42;13.57;;;;;;;-4.96;50.45;101984.28;5051712;28;20025;-58
2023/12/07 08:29:25;;;;;;;28.02;14.77;;;;;;;-4.82;49.99;101991.53;5052337;28;20057;-56
2023/12/07 08:31:51;;;;;;;37.20;16.17;;;;;;;-4.95;50.20;101987.81;5050831;28;20091;-57
2023/12/07 08:34:17;;;;;;;32.35;15.85;;;;;;;-4.97;49.72;101985.16;5052350;28;20082;-57
2023/12/07 08:36:42;;;;;;;34.95;16.70;;;;;;;-5.07;50.81;101976.25;5051826;28;20062;-59
2023/12/07 08:39:09;;;;;;;30.42;15.90;;;;;;;-5.03;50.14;101973.72;5051855;28;20040;-59
2023/12/07 08:41:36;;;;;;;38.15;17.38;;;;;;;-5.09;50.24;101980.56;5052316;28;20086;-57
2023/12/07 08:44:02;;;;;;;39.08;17.90;;;;;;;-5.40;50.99;101977.38;5055928;28;20029;-52
2023/12/07 08:46:27;;;;;;;34.92;17.27;;;;;;;-5.40;50.52;101973.91;5056364;28;20363;-53
2023/12/07 08:48:53;;;;;;;33.00;15.68;;;;;;;-5.58;51.02;101966.53;5055913;28;20048;-51
2023/12/07 08:51:19;;;;;;;35.95;16.80;;;;;;;-5.68;50.95;101970.69;5055879;28;20033;-57
2023/12/07 08:53:45;;;;;;;38.28;18.30;;;;;;;-6.00;51.63;101953.50;5056357;28;20028;-51
2023/12/07 08:56:12;;;;;;;37.75;18.30;;;;;;;-6.10;51.99;101969.81;5055330;28;20021;-52
2023/12/07 08:58:41;;;;;;;35.08;17.92;;;;;;;-6.11;51.99;101962.84;5055870;28;20515;-54
2023/12/07 09:01:07;;;;;;;35.10;16.63;;;;;;;-6.05;52.36;101962.97;5055934;28;20044;-55
2023/12/07 09:03:33;;;;;;;35.38;17.45;;;;;;;-6.01;52.35;101970.03;5055798;28;20059;-55
2023/12/07 09:06:00;;;;;;;36.50;19.00;;;;;;;-6.07;52.43;101964.66;5055430;28;20394;-58
2023/12/07 09:08:25;;;;;;;37.22;18.50;;;;;;;-6.20;51.85;101967.00;5055920;28;20029;-56
2023/12/07 09:10:51;;;;;;;40.60;18.92;;;;;;;-6.35;52.45;101979.66;5055725;28;20083;-53
2023/12/07 09:13:18;;;;;;;35.20;16.35;;;;;;;-6.34;52.30;101965.78;5055371;28;20317;-58
2023/12/07 09:15:44;;;;;;;35.85;18.38;;;;;;;-6.37;52.25;101968.31;5055003;28;20364;-57
2023/12/07 09:18:10;;;;;;;36.83;17.15;;;;;;;-6.36;52.79;101967.47;5055866;28;20082;-55
2023/12/07 09:20:37;;;;;;;34.08;17.33;;;;;;;-6.37;52.36;101960.50;5055583;28;20025;-54
2023/12/07 09:23:03;;;;;;;36.13;18.15;;;;;;;-6.56;52.27;101947.03;5055092;28;20112;-57
2023/12/07 09:25:30;;;;;;;35.85;17.70;;;;;;;-6.53;52.79;101965.34;5054846;28;20355;-59
2023/12/07 09:27:56;;;;;;;36.78;18.58;;;;;;;-6.77;52.62;101930.00;5055911;28;20025;-57
2023/12/07 09:30:21;;;;;;;38.53;18.65;;;;;;;-6.63;52.86;101963.38;5055529;28;20031;-55
2023/12/07 09:32:47;;;;;;;37.47;18.10;;;;;;;-6.70;53.51;101964.94;5055169;28;20136;-55
2023/12/07 09:35:16;;;;;;;38.33;17.85;;;;;;;-6.69;53.79;101966.69;5054936;28;20041;-55
2023/12/07 09:37:42;;;;;;;37.55;17.50;;;;;;;-6.66;53.03;101963.28;5055594;28;20411;-52
2023/12/07 09:40:07;;;;;;;36.28;17.73;;;;;;;-6.66;53.47;101960.69;5054877;28;20025;-54
2023/12/07 09:42:36;;;;;;;39.53;18.75;;;;;;;-6.66;53.77;101958.06;5054843;28;20036;-56
2023/12/07 09:45:01;;;;;;;34.53;16.88;;;;;;;-6.62;53.53;101962.50;5056449;28;20036;-53
2023/12/07 09:47:31;;;;;;;38.70;16.67;;;;;;;-6.56;53.25;101960.06;5055823;28;20028;-50
2023/12/07 09:49:57;;;;;;;32.58;16.35;;;;;;;-6.62;53.01;101965.13;5055387;28;20048;-53
2023/12/07 09:52:23;;;;;;;32.20;15.95;;;;;;;-6.69;53.43;101960.63;5054617;28;20097;-53
2023/12/07 09:54:50;;;;;;;32.97;16.25;;;;;;;-6.63;53.14;101963.38;5054433;28;20037;-55
2023/12/07 09:57:16;;;;;;;35.53;15.82;;;;;;;-6.61;52.79;101961.66;5055268;28;20513;-56
2023/12/07 09:59:41;;;;;;;36.97;16.42;;;;;;;-6.65;52.70;101954.63;5054793;28;20036;-56
2023/12/07 10:02:10;;;;;;;36.03;16.13;;;;;;;-6.92;53.61;101958.31;5054189;28;20037;-56
2023/12/07 10:04:36;;;;;;;34.63;16.40;;;;;;;-6.99;53.36;101964.16;5054628;28;20029;-58
2023/12/07 10:07:02;;;;;;;34.80;16.42;;;;;;;-7.14;54.63;101954.22;5055022;28;20029;-56
2023/12/07 10:09:27;;;;;;;31.48;16.40;;;;;;;-7.08;54.73;101970.91;5054467;28;20055;-58
2023/12/07 10:12:04;;;;;;;36.58;16.30;;;;;;;-6.94;54.09;101965.19;5053625;28;20435;-57
2023/12/07 10:14:29;;;;;;;28.58;14.50;;;;;;;-6.91;54.15;101962.66;5054328;28;20064;-57
2023/12/07 10:16:56;;;;;;;32.72;16.05;;;;;;;-7.03;54.26;101968.44;5054554;28;20118;-58
2023/12/07 10:19:22;;;;;;;31.52;13.85;;;;;;;-7.07;54.01;101966.59;5053580;28;20025;-56
2023/12/07 10:21:49;;;;;;;27.02;12.82;;;;;;;-7.17;54.45;101960.25;5054708;28;20436;-55
2023/12/07 10:24:20;;;;;;;36.08;15.10;;;;;;;-7.27;53.89;101942.59;5054463;28;20029;-52
2023/12/07 10:26:47;;;;;;;32.08;15.35;;;;;;;-7.45;54.92;101969.00;5053821;28;20154;-51
2023/12/07 10:29:13;;;;;;;30.88;14.15;;;;;;;-7.43;54.87;101963.03;5054341;28;20094;-54
2023/12/07 10:31:39;;;;;;;30.67;14.48;;;;;;;-7.30;54.96;101965.94;5054452;28;20033;-52
2023/12/07 10:34:05;;;;;;;30.52;15.10;;;;;;;-7.16;54.98;101971.53;5053540;28;20049;-53
2023/12/07 10:36:32;;;;;;;31.95;14.85;;;;;;;-6.96;53.83;101982.50;5053848;28;20029;-56
2023/12/07 10:38:58;;;;;;;34.40;15.68;;;;;;;-7.08;55.80;101967.44;5053305;28;20367;-54
2023/12/07 10:41:25;;;;;;;34.85;15.18;;;;;;;-6.92;54.56;101961.75;5053174;28;20032;-54
2023/12/07 10:44:01;;;;;;;35.10;15.68;;;;;;;-6.84;54.47;101967.19;5053547;28;20040;-55
2023/12/07 10:46:27;;;;;;;30.63;14.98;;;;;;;-6.86;54.32;101968.88;5053609;28;20035;-55
2023/12/07 10:49:01;;;;;;;34.30;15.40;;;;;;;-6.91;53.99;101962.66;5053897;28;20033;-54
2023/12/07 10:51:55;;;;;;;32.83;15.48;;;;;;;-6.94;56.17;101976.47;5053217;28;20054;-55
2023/12/07 10:54:24;;;;;;;33.65;15.57;;;;;;;-6.98;55.06;101971.16;5051106;28;20087;-53
2023/12/07 10:56:50;;;;;;;33.25;15.13;;;;;;;-7.10;55.39;101985.59;5050204;28;20494;-55
2023/12/07 10:59:16;;;;;;;34.80;16.23;;;;;;;-7.09;54.50;101976.94;5052918;28;20032;-58
2023/12/07 11:01:43;;;;;;;35.42;16.67;;;;;;;-7.29;55.82;101975.53;5042111;28;20116;-57
2023/12/07 11:04:13;;;;;;;35.30;14.73;;;;;;;-7.26;56.48;101975.59;5048621;28;20367;-58
2023/12/07 11:06:47;;;;;;;33.30;14.23;;;;;;;-7.09;55.25;101989.09;5041453;28;20032;-57